createdAt,value
2022-08-17T00:00:54.402Z,21.01
2022-08-17T00:01:54.713Z,21.01
2022-08-17T00:04:39.299Z,20.99
2022-08-17T00:05:11.480Z,20.99
2022-08-17T00:06:11.809Z,21.01
2022-08-17T00:07:12.131Z,21.01
2022-08-17T00:08:12.459Z,21.01
2022-08-17T00:09:12.784Z,20.99
2022-08-17T00:10:14.084Z,20.98
2022-08-17T00:11:13.354Z,20.95
2022-08-17T00:12:41.141Z,20.95
2022-08-17T00:13:14.971Z,20.94
2022-08-17T00:14:14.221Z,20.94
2022-08-17T00:15:14.554Z,20.92
2022-08-17T00:16:14.886Z,20.88
2022-08-17T00:17:15.217Z,20.87
2022-08-17T00:18:53.937Z,20.82
2022-08-17T00:19:16.845Z,20.77
2022-08-17T00:20:16.091Z,20.77
2022-08-17T00:21:16.337Z,20.76
2022-08-17T00:22:34.181Z,20.74
2022-08-17T00:23:17.976Z,20.74
2022-08-17T00:24:17.217Z,20.74
2022-08-17T00:25:17.535Z,20.74
2022-08-17T00:26:44.544Z,20.73
2022-08-17T00:27:19.152Z,20.72
2022-08-17T00:28:18.408Z,20.70
2022-08-17T00:29:19.887Z,20.70
2022-08-17T00:30:19.000Z,20.72
2022-08-17T00:31:19.341Z,20.70
2022-08-17T00:33:13.673Z,20.72
2022-08-17T00:33:20.938Z,20.70
2022-08-17T00:34:20.181Z,20.69
2022-08-17T00:35:20.509Z,20.69
2022-08-17T00:36:20.852Z,20.70
2022-08-17T00:37:21.161Z,20.69
2022-08-17T00:38:21.480Z,20.69
2022-08-17T00:39:21.803Z,20.67
2022-08-17T00:40:22.112Z,20.67
2022-08-17T00:41:22.465Z,20.66
2022-08-17T00:42:24.493Z,20.62
2022-08-17T00:43:23.027Z,20.62
2022-08-17T00:44:23.357Z,20.59
2022-08-17T00:45:24.660Z,20.59
2022-08-17T00:46:23.936Z,20.58
2022-08-17T00:47:24.265Z,20.54
2022-08-17T00:48:29.690Z,20.55
2022-08-17T00:49:25.889Z,20.55
2022-08-17T00:50:25.146Z,20.55
2022-08-17T00:51:25.486Z,20.54
2022-08-17T00:52:25.806Z,20.50
2022-08-17T00:53:26.135Z,20.50
2022-08-17T00:54:26.456Z,20.48
2022-08-17T00:55:26.770Z,20.47
2022-08-17T00:56:27.117Z,20.47
2022-08-17T00:57:27.437Z,20.47
2022-08-17T00:58:35.732Z,20.48
2022-08-17T00:59:29.051Z,20.47
2022-08-17T01:00:28.313Z,20.47
2022-08-17T01:01:28.681Z,20.43
2022-08-17T01:02:28.894Z,20.42
2022-08-17T01:03:30.191Z,20.42
2022-08-17T01:04:29.445Z,20.38
2022-08-17T01:05:29.761Z,20.36
2022-08-17T01:06:30.095Z,20.36
2022-08-17T01:07:30.341Z,20.35
2022-08-17T01:08:30.645Z,20.33
2022-08-17T01:09:30.959Z,20.35
2022-08-17T01:10:58.345Z,20.33
2022-08-17T01:11:32.626Z,20.36
2022-08-17T01:12:31.878Z,20.33
2022-08-17T01:13:35.480Z,20.31
2022-08-17T01:14:33.506Z,20.31
2022-08-17T01:15:32.754Z,20.29
2022-08-17T01:16:33.086Z,20.29
2022-08-17T01:17:33.398Z,20.28
2022-08-17T01:18:33.719Z,20.28
2022-08-17T01:19:34.040Z,20.28
2022-08-17T01:20:43.071Z,20.28
2022-08-17T01:21:35.650Z,20.29
2022-08-17T01:22:34.898Z,20.29
2022-08-17T01:23:35.221Z,20.29
2022-08-17T01:24:35.543Z,20.28
2022-08-17T01:25:35.871Z,20.24
2022-08-17T01:26:36.180Z,20.24
2022-08-17T01:27:36.511Z,20.23
2022-08-17T01:28:54.328Z,20.20
2022-08-17T01:29:38.045Z,20.20
2022-08-17T01:30:56.994Z,20.18
2022-08-17T01:31:38.593Z,20.17
2022-08-17T01:32:37.882Z,20.17
2022-08-17T01:33:38.072Z,20.17
2022-08-17T01:34:43.646Z,20.16
2022-08-17T01:35:39.685Z,20.16
2022-08-17T01:36:38.946Z,20.16
2022-08-17T01:37:39.255Z,20.14
2022-08-17T01:38:39.631Z,20.14
2022-08-17T01:39:39.879Z,20.13
2022-08-17T01:40:40.109Z,20.11
2022-08-17T01:41:40.451Z,20.08
2022-08-17T01:42:40.768Z,20.11
2022-08-17T01:43:41.089Z,20.10
2022-08-17T01:44:41.400Z,20.08
2022-08-17T01:45:41.725Z,20.08
2022-08-17T01:46:42.104Z,20.06
2022-08-17T01:47:42.329Z,20.05
2022-08-17T01:48:42.650Z,20.05
2022-08-17T01:49:42.969Z,20.05
2022-08-17T01:50:43.283Z,20.05
2022-08-17T01:51:43.628Z,20.03
2022-08-17T01:52:43.942Z,20.03
2022-08-17T01:53:44.261Z,20.03
2022-08-17T01:54:44.575Z,20.02
2022-08-17T01:55:44.883Z,20.01
2022-08-17T01:56:47.329Z,20.02
2022-08-17T01:57:45.504Z,20.02
2022-08-17T01:58:45.811Z,20.01
2022-08-17T01:59:46.132Z,19.99
2022-08-17T02:00:46.793Z,19.99
2022-08-17T02:01:47.831Z,19.98
2022-08-17T02:02:46.993Z,19.96
2022-08-17T02:03:53.470Z,19.96
2022-08-17T02:04:48.637Z,19.96
2022-08-17T02:05:47.866Z,19.95
2022-08-17T02:06:53.187Z,19.92
2022-08-17T02:08:00.182Z,19.92
2022-08-17T02:09:01.704Z,19.92
2022-08-17T02:09:52.633Z,19.91
2022-08-17T02:10:49.506Z,19.91
2022-08-17T02:11:49.913Z,19.91
2022-08-17T02:12:50.265Z,19.92
2022-08-17T02:13:57.907Z,19.87
2022-08-17T02:14:51.710Z,19.88
2022-08-17T02:15:50.959Z,19.88
2022-08-17T02:16:51.292Z,19.87
2022-08-17T02:17:54.582Z,19.87
2022-08-17T02:18:51.870Z,19.87
2022-08-17T02:19:52.178Z,19.87
2022-08-17T02:20:52.491Z,19.87
2022-08-17T02:21:52.814Z,19.88
2022-08-17T02:22:53.126Z,19.88
2022-08-17T02:23:53.446Z,19.86
2022-08-17T02:24:59.536Z,19.88
2022-08-17T02:25:55.044Z,19.86
2022-08-17T02:26:54.283Z,19.83
2022-08-17T02:27:54.595Z,19.80
2022-08-17T02:28:54.926Z,19.77
2022-08-17T02:29:55.235Z,19.76
2022-08-17T02:31:02.002Z,19.74
2022-08-17T02:31:56.861Z,19.74
2022-08-17T02:32:56.108Z,19.74
2022-08-17T02:34:00.403Z,19.74
2022-08-17T02:34:57.663Z,19.73
2022-08-17T02:35:56.911Z,19.71
2022-08-17T02:36:57.239Z,19.71
2022-08-17T02:37:57.556Z,19.71
2022-08-17T02:38:57.879Z,19.69
2022-08-17T02:39:58.475Z,19.69
2022-08-17T02:40:58.439Z,19.69
2022-08-17T02:41:58.782Z,19.66
2022-08-17T02:42:59.088Z,19.66
2022-08-17T02:43:59.419Z,19.68
2022-08-17T02:44:59.744Z,19.66
2022-08-17T02:46:00.074Z,19.66
2022-08-17T02:47:00.400Z,19.65
2022-08-17T02:48:00.721Z,19.63
2022-08-17T02:49:01.027Z,19.62
2022-08-17T02:50:01.355Z,19.65
2022-08-17T02:51:01.673Z,19.63
2022-08-17T02:52:02.014Z,19.62
2022-08-17T02:53:02.924Z,19.61
2022-08-17T02:54:41.042Z,19.61
2022-08-17T02:55:03.859Z,19.59
2022-08-17T02:56:03.099Z,19.58
2022-08-17T02:57:03.414Z,19.58
2022-08-17T02:58:03.765Z,19.55
2022-08-17T02:59:04.065Z,19.55
2022-08-17T03:00:04.407Z,19.54
2022-08-17T03:01:04.741Z,19.51
2022-08-17T03:02:05.099Z,19.51
2022-08-17T03:03:05.305Z,19.50
2022-08-17T03:04:05.628Z,19.48
2022-08-17T03:05:05.957Z,19.47
2022-08-17T03:06:06.276Z,19.47
2022-08-17T03:07:07.460Z,19.47
2022-08-17T03:08:06.829Z,19.46
2022-08-17T03:09:07.105Z,19.44
2022-08-17T03:10:07.428Z,19.46
2022-08-17T03:11:07.739Z,19.46
2022-08-17T03:12:08.064Z,19.44
2022-08-17T03:13:08.373Z,19.44
2022-08-17T03:14:08.693Z,19.44
2022-08-17T03:15:09.001Z,19.43
2022-08-17T03:16:09.333Z,19.41
2022-08-17T03:17:09.657Z,19.43
2022-08-17T03:18:19.285Z,19.40
2022-08-17T03:19:11.194Z,19.40
2022-08-17T03:20:10.425Z,19.40
2022-08-17T03:21:10.757Z,19.41
2022-08-17T03:22:36.904Z,19.41
2022-08-17T03:23:12.386Z,19.40
2022-08-17T03:24:11.656Z,19.40
2022-08-17T03:25:11.967Z,19.39
2022-08-17T03:26:15.510Z,19.40
2022-08-17T03:27:12.546Z,19.39
2022-08-17T03:28:12.890Z,19.37
2022-08-17T03:29:13.218Z,19.37
2022-08-17T03:30:13.568Z,19.36
2022-08-17T03:31:13.889Z,19.33
2022-08-17T03:32:14.227Z,19.36
2022-08-17T03:33:14.551Z,19.36
2022-08-17T03:34:14.950Z,19.33
2022-08-17T03:35:15.164Z,19.29
2022-08-17T03:36:15.469Z,19.29
2022-08-17T03:37:15.792Z,19.31
2022-08-17T03:38:16.120Z,19.28
2022-08-17T03:39:16.445Z,19.31
2022-08-17T03:40:16.770Z,19.29
2022-08-17T03:41:18.076Z,19.31
2022-08-17T03:42:32.155Z,19.31
2022-08-17T03:43:18.672Z,19.31
2022-08-17T03:44:17.954Z,19.31
2022-08-17T03:45:18.283Z,19.31
2022-08-17T03:46:28.486Z,19.29
2022-08-17T03:47:19.966Z,19.29
2022-08-17T03:48:19.232Z,19.29
2022-08-17T03:49:19.588Z,19.28
2022-08-17T03:50:19.915Z,19.25
2022-08-17T03:51:20.275Z,19.26
2022-08-17T03:52:20.496Z,19.23
2022-08-17T03:53:20.844Z,19.26
2022-08-17T03:54:21.185Z,19.25
2022-08-17T03:55:21.527Z,19.25
2022-08-17T03:56:22.846Z,19.25
2022-08-17T03:57:22.121Z,19.26
2022-08-17T03:58:22.468Z,19.26
2022-08-17T03:59:22.809Z,19.23
2022-08-17T04:00:23.159Z,19.25
2022-08-17T04:01:23.557Z,19.28
2022-08-17T04:02:23.882Z,19.28
2022-08-17T04:03:24.122Z,19.29
2022-08-17T04:04:27.427Z,19.29
2022-08-17T04:05:24.613Z,19.29
2022-08-17T04:06:24.841Z,19.29
2022-08-17T04:07:25.079Z,19.31
2022-08-17T04:08:25.367Z,19.31
2022-08-17T04:09:25.583Z,19.32
2022-08-17T04:10:26.522Z,19.32
2022-08-17T04:11:26.106Z,19.31
2022-08-17T04:12:26.336Z,19.31
2022-08-17T04:13:26.574Z,19.32
2022-08-17T04:14:26.814Z,19.32
2022-08-17T04:15:27.034Z,19.33
2022-08-17T04:16:27.406Z,19.33
2022-08-17T04:17:27.642Z,19.33
2022-08-17T04:18:27.869Z,19.33
2022-08-17T04:19:28.096Z,19.36
2022-08-17T04:20:28.318Z,19.36
2022-08-17T04:21:28.695Z,19.33
2022-08-17T04:22:32.446Z,19.33
2022-08-17T04:23:30.257Z,19.37
2022-08-17T04:24:29.483Z,19.37
2022-08-17T04:25:29.731Z,19.36
2022-08-17T04:26:52.847Z,19.33
2022-08-17T04:27:31.268Z,19.33
2022-08-17T04:28:30.610Z,19.33
2022-08-17T04:29:54.399Z,19.33
2022-08-17T04:30:32.189Z,19.39
2022-08-17T04:31:31.492Z,19.39
2022-08-17T04:33:04.504Z,19.39
2022-08-17T04:33:33.045Z,19.40
2022-08-17T04:34:32.353Z,19.43
2022-08-17T04:35:32.592Z,19.41
2022-08-17T04:36:32.935Z,19.44
2022-08-17T04:37:33.186Z,19.44
2022-08-17T04:38:33.414Z,19.47
2022-08-17T04:39:33.980Z,19.50
2022-08-17T04:40:33.953Z,19.51
2022-08-17T04:41:34.186Z,19.54
2022-08-17T04:42:34.425Z,19.56
2022-08-17T04:43:34.681Z,19.58
2022-08-17T04:44:37.463Z,19.58
2022-08-17T04:45:35.185Z,19.61
2022-08-17T04:46:35.486Z,19.62
2022-08-17T04:47:35.706Z,19.63
2022-08-17T04:48:37.418Z,19.65
2022-08-17T04:49:36.196Z,19.66
2022-08-17T04:50:36.430Z,19.68
2022-08-17T04:51:36.668Z,19.69
2022-08-17T04:52:43.664Z,19.73
2022-08-17T04:53:38.207Z,19.74
2022-08-17T04:54:37.488Z,19.76
2022-08-17T04:55:37.740Z,19.78
2022-08-17T04:56:37.970Z,19.81
2022-08-17T04:57:41.812Z,19.83
2022-08-17T04:58:39.542Z,19.86
2022-08-17T04:59:38.823Z,19.87
2022-08-17T05:00:39.063Z,19.91
2022-08-17T05:01:39.418Z,19.95
2022-08-17T05:02:39.543Z,19.98
2022-08-17T05:03:41.051Z,20.01
2022-08-17T05:04:40.085Z,20.05
2022-08-17T05:05:40.325Z,20.08
2022-08-17T05:06:40.545Z,20.08
2022-08-17T05:07:40.790Z,20.13
2022-08-17T05:08:41.034Z,20.14
2022-08-17T05:09:41.274Z,20.20
2022-08-17T05:10:45.494Z,20.21
2022-08-17T05:11:44.941Z,20.24
2022-08-17T05:12:42.134Z,20.31
2022-08-17T05:13:42.288Z,20.33
2022-08-17T05:14:42.646Z,20.36
2022-08-17T05:15:45.195Z,20.42
2022-08-17T05:16:43.167Z,20.51
2022-08-17T05:17:43.398Z,20.64
2022-08-17T05:18:43.629Z,20.88
2022-08-17T05:19:45.732Z,21.27
2022-08-17T05:20:45.197Z,21.72
2022-08-17T05:21:44.501Z,22.14
2022-08-17T05:22:44.757Z,22.51
2022-08-17T05:23:44.986Z,22.86
2022-08-17T05:24:53.349Z,23.17
2022-08-17T05:25:47.740Z,23.47
2022-08-17T05:26:45.776Z,23.68
2022-08-17T05:27:46.012Z,23.88
2022-08-17T05:28:46.242Z,24.09
2022-08-17T05:29:46.525Z,24.27
2022-08-17T05:30:48.675Z,24.45
2022-08-17T05:31:47.038Z,24.65
2022-08-17T05:32:47.263Z,24.84
2022-08-17T05:33:47.507Z,24.93
2022-08-17T05:34:47.770Z,25.06
2022-08-17T05:35:48.029Z,25.18
2022-08-17T05:36:48.284Z,25.10
2022-08-17T05:37:48.567Z,25.05
2022-08-17T05:38:48.791Z,25.15
2022-08-17T05:39:49.079Z,25.30
2022-08-17T05:40:49.323Z,25.43
2022-08-17T05:41:49.580Z,25.55
2022-08-17T05:42:49.956Z,25.70
2022-08-17T05:43:54.331Z,25.83
2022-08-17T05:44:51.400Z,25.91
2022-08-17T05:45:55.400Z,25.94
2022-08-17T05:46:51.917Z,25.90
2022-08-17T05:47:51.243Z,25.87
2022-08-17T05:48:51.531Z,25.83
2022-08-17T05:49:51.755Z,25.87
2022-08-17T05:50:52.074Z,25.82
2022-08-17T05:51:52.348Z,25.57
2022-08-17T05:52:52.624Z,25.46
2022-08-17T05:53:52.868Z,25.36
2022-08-17T05:54:53.139Z,25.25
2022-08-17T05:55:53.487Z,25.27
2022-08-17T05:56:53.785Z,25.25
2022-08-17T05:57:56.070Z,25.20
2022-08-17T05:58:54.279Z,25.25
2022-08-17T05:59:54.592Z,25.02
2022-08-17T06:00:54.909Z,24.88
2022-08-17T06:01:55.071Z,24.87
2022-08-17T06:02:55.480Z,24.99
2022-08-17T06:03:55.645Z,25.20
2022-08-17T06:04:55.932Z,25.38
2022-08-17T06:05:56.214Z,25.51
2022-08-17T06:06:56.506Z,25.65
2022-08-17T06:07:56.815Z,25.80
2022-08-17T06:08:57.086Z,25.77
2022-08-17T06:09:57.367Z,25.72
2022-08-17T06:10:57.717Z,25.60
2022-08-17T06:11:58.838Z,25.38
2022-08-17T06:12:58.197Z,25.13
2022-08-17T06:13:58.470Z,25.00
2022-08-17T06:14:58.757Z,25.02
2022-08-17T06:15:58.999Z,25.06
2022-08-17T06:16:59.250Z,25.10
2022-08-17T06:17:59.521Z,25.23
2022-08-17T06:18:59.814Z,25.35
2022-08-17T06:20:00.194Z,25.47
2022-08-17T06:21:00.323Z,25.64
2022-08-17T06:22:00.584Z,25.72
2022-08-17T06:23:00.864Z,25.76
2022-08-17T06:24:01.115Z,25.75
2022-08-17T06:25:01.376Z,25.67
2022-08-17T06:26:01.639Z,25.70
2022-08-17T06:27:01.923Z,25.62
2022-08-17T06:28:02.196Z,25.54
2022-08-17T06:29:02.448Z,25.54
2022-08-17T06:30:02.717Z,25.60
2022-08-17T06:31:02.970Z,25.72
2022-08-17T06:32:03.236Z,25.82
2022-08-17T06:33:03.490Z,25.91
2022-08-17T06:34:03.749Z,25.75
2022-08-17T06:35:04.011Z,25.55
2022-08-17T06:36:09.200Z,25.35
2022-08-17T06:37:05.608Z,25.24
2022-08-17T06:38:04.923Z,25.13
2022-08-17T06:39:05.188Z,25.03
2022-08-17T06:40:05.497Z,25.02
2022-08-17T06:41:05.766Z,24.93
2022-08-17T06:42:06.094Z,24.88
2022-08-17T06:43:07.352Z,24.81
2022-08-17T06:44:06.576Z,24.69
2022-08-17T06:45:06.894Z,24.62
2022-08-17T06:46:07.155Z,24.55
2022-08-17T06:47:07.401Z,24.47
2022-08-17T06:48:07.636Z,24.40
2022-08-17T06:49:07.903Z,24.35
2022-08-17T06:50:08.147Z,24.32
2022-08-17T06:51:08.398Z,24.22
2022-08-17T06:52:08.636Z,24.13
2022-08-17T06:53:08.880Z,24.06
2022-08-17T06:54:09.125Z,24.00
2022-08-17T06:55:09.398Z,23.98
2022-08-17T06:56:10.608Z,23.97
2022-08-17T06:57:09.960Z,23.90
2022-08-17T06:58:15.991Z,23.80
2022-08-17T06:59:11.543Z,23.78
2022-08-17T07:00:10.873Z,23.75
2022-08-17T07:01:11.179Z,23.75
2022-08-17T07:02:11.442Z,23.73
2022-08-17T07:03:11.694Z,23.70
2022-08-17T07:04:12.355Z,23.72
2022-08-17T07:05:12.185Z,23.73
2022-08-17T07:06:12.434Z,23.76
2022-08-17T07:07:12.684Z,23.78
2022-08-17T07:08:12.927Z,23.80
2022-08-17T07:09:13.167Z,23.80
2022-08-17T07:10:13.428Z,23.85
2022-08-17T07:11:13.657Z,23.85
2022-08-17T07:12:13.907Z,23.88
2022-08-17T07:13:14.149Z,23.93
2022-08-17T07:14:17.379Z,23.98
2022-08-17T07:15:14.674Z,24.05
2022-08-17T07:16:14.928Z,24.05
2022-08-17T07:17:15.187Z,24.06
2022-08-17T07:18:15.424Z,24.10
2022-08-17T07:19:15.693Z,24.12
2022-08-17T07:20:16.023Z,24.16
2022-08-17T07:21:18.545Z,24.22
2022-08-17T07:22:16.574Z,24.28
2022-08-17T07:23:16.814Z,24.32
2022-08-17T07:24:29.975Z,24.35
2022-08-17T07:25:18.326Z,24.39
2022-08-17T07:26:17.700Z,24.43
2022-08-17T07:27:17.784Z,24.42
2022-08-17T07:28:18.054Z,24.45
2022-08-17T07:29:18.318Z,24.47
2022-08-17T07:30:18.530Z,24.46
2022-08-17T07:31:18.768Z,24.47
2022-08-17T07:32:19.018Z,24.47
2022-08-17T07:33:19.260Z,24.47
2022-08-17T07:34:19.512Z,24.49
2022-08-17T07:35:19.922Z,24.49
2022-08-17T07:36:20.019Z,24.50
2022-08-17T07:37:20.261Z,24.53
2022-08-17T07:38:25.370Z,24.53
2022-08-17T07:39:21.863Z,24.58
2022-08-17T07:40:21.253Z,24.60
2022-08-17T07:41:23.055Z,24.61
2022-08-17T07:42:21.824Z,24.65
2022-08-17T07:43:23.564Z,24.67
2022-08-17T07:44:22.347Z,24.68
2022-08-17T07:45:22.577Z,24.73
2022-08-17T07:46:22.832Z,24.78
2022-08-17T07:47:23.046Z,24.84
2022-08-17T07:48:23.309Z,24.87
2022-08-17T07:49:23.569Z,24.88
2022-08-17T07:50:25.869Z,24.93
2022-08-17T07:51:24.156Z,24.96
2022-08-17T07:52:51.881Z,24.96
2022-08-17T07:53:25.690Z,24.95
2022-08-17T07:54:25.030Z,24.96
2022-08-17T07:55:25.290Z,24.99
2022-08-17T07:56:25.530Z,25.03
2022-08-17T07:57:30.045Z,25.05
2022-08-17T07:58:26.123Z,25.06
2022-08-17T07:59:28.656Z,25.09
2022-08-17T08:00:32.192Z,25.15
2022-08-17T08:01:27.942Z,25.17
2022-08-17T08:02:33.460Z,25.17
2022-08-17T08:03:28.615Z,25.18
2022-08-17T08:04:58.989Z,25.20
2022-08-17T08:05:46.627Z,25.25
2022-08-17T08:06:29.365Z,25.27
2022-08-17T08:07:28.737Z,25.28
2022-08-17T08:08:28.984Z,25.32
2022-08-17T08:09:29.228Z,25.38
2022-08-17T08:10:29.461Z,25.39
2022-08-17T08:11:29.699Z,25.40
2022-08-17T08:12:33.408Z,25.46
2022-08-17T08:13:30.339Z,25.52
2022-08-17T08:14:31.116Z,25.55
2022-08-17T08:15:30.821Z,25.58
2022-08-17T08:16:31.069Z,25.60
2022-08-17T08:17:31.419Z,25.64
2022-08-17T08:18:54.020Z,25.70
2022-08-17T08:19:32.972Z,25.76
2022-08-17T08:20:52.763Z,25.77
2022-08-17T08:21:33.603Z,25.82
2022-08-17T08:22:32.980Z,25.90
2022-08-17T08:23:33.203Z,25.94
2022-08-17T08:24:33.474Z,25.94
2022-08-17T08:25:33.706Z,25.97
2022-08-17T08:26:34.008Z,26.01
2022-08-17T08:27:34.249Z,26.02
2022-08-17T08:28:34.480Z,26.07
2022-08-17T08:29:34.763Z,26.15
2022-08-17T08:30:34.961Z,26.25
2022-08-17T08:31:40.173Z,26.33
2022-08-17T08:32:36.530Z,26.36
2022-08-17T08:33:35.851Z,26.37
2022-08-17T08:35:00.836Z,26.40
2022-08-17T08:35:37.425Z,26.40
2022-08-17T08:37:14.274Z,26.40
2022-08-17T08:37:42.722Z,26.47
2022-08-17T08:38:38.331Z,26.51
2022-08-17T08:39:37.679Z,26.52
2022-08-17T08:40:37.934Z,26.48
2022-08-17T08:41:38.197Z,26.44
2022-08-17T08:42:38.504Z,26.50
2022-08-17T08:43:38.747Z,26.58
2022-08-17T08:45:00.801Z,26.62
2022-08-17T08:45:40.341Z,26.60
2022-08-17T08:46:39.640Z,26.65
2022-08-17T08:47:39.868Z,26.60
2022-08-17T08:48:56.376Z,26.65
2022-08-17T08:50:41.700Z,26.62
2022-08-17T08:51:41.001Z,26.63
2022-08-17T08:52:41.229Z,26.70
2022-08-17T08:53:41.490Z,26.73
2022-08-17T08:54:41.729Z,26.80
2022-08-17T08:55:41.981Z,26.81
2022-08-17T08:57:11.645Z,26.82
2022-08-17T08:57:43.544Z,26.82
2022-08-17T08:58:42.934Z,26.82
2022-08-17T08:59:44.592Z,26.84
2022-08-17T09:00:44.437Z,26.88
2022-08-17T09:01:43.757Z,26.91
2022-08-17T09:02:44.009Z,26.88
2022-08-17T09:03:52.723Z,26.87
2022-08-17T09:05:12.858Z,26.92
2022-08-17T09:05:45.817Z,26.97
2022-08-17T09:06:45.149Z,27.03
2022-08-17T09:07:57.336Z,27.07
2022-08-17T09:08:45.723Z,27.10
2022-08-17T09:09:46.142Z,27.14
2022-08-17T09:10:46.192Z,27.17
2022-08-17T09:12:02.202Z,27.24
2022-08-17T09:12:47.739Z,27.27
2022-08-17T09:13:47.015Z,27.25
2022-08-17T09:14:48.321Z,27.28
2022-08-17T09:15:47.625Z,27.34
2022-08-17T09:16:47.855Z,27.36
2022-08-17T09:17:48.157Z,27.37
2022-08-17T09:19:02.608Z,27.41
2022-08-17T09:19:49.705Z,27.44
2022-08-17T09:20:50.337Z,27.46
2022-08-17T09:21:49.290Z,27.41
2022-08-17T09:22:49.573Z,27.40
2022-08-17T09:23:49.776Z,27.41
2022-08-17T09:24:50.001Z,27.40
2022-08-17T09:25:50.253Z,27.40
2022-08-17T09:26:50.480Z,27.49
2022-08-17T09:27:50.866Z,27.55
2022-08-17T09:28:51.035Z,27.55
2022-08-17T09:29:51.272Z,27.60
2022-08-17T09:30:51.493Z,27.60
2022-08-17T09:31:51.726Z,27.65
2022-08-17T09:32:51.977Z,27.66
2022-08-17T09:33:52.225Z,27.69
2022-08-17T09:34:52.502Z,27.69
2022-08-17T09:35:52.697Z,27.69
2022-08-17T09:36:52.915Z,27.67
2022-08-17T09:37:53.164Z,27.72
2022-08-17T09:38:53.388Z,27.74
2022-08-17T09:39:53.706Z,27.72
2022-08-17T09:40:53.942Z,27.77
2022-08-17T09:41:54.170Z,27.82
2022-08-17T09:42:54.393Z,27.85
2022-08-17T09:43:54.620Z,27.85
2022-08-17T09:44:54.861Z,27.81
2022-08-17T09:45:55.092Z,27.78
2022-08-17T09:46:55.320Z,27.81
2022-08-17T09:47:55.575Z,27.84
2022-08-17T09:48:55.813Z,27.84
2022-08-17T09:49:56.189Z,27.84
2022-08-17T09:51:05.783Z,27.84
2022-08-17T09:51:57.723Z,27.87
2022-08-17T09:52:57.013Z,27.85
2022-08-17T09:54:14.775Z,27.87
2022-08-17T09:54:58.544Z,27.87
2022-08-17T09:55:57.844Z,27.88
2022-08-17T09:57:25.809Z,27.90
2022-08-17T09:57:59.777Z,27.96
2022-08-17T09:58:58.679Z,28.02
2022-08-17T09:59:59.040Z,28.00
2022-08-17T10:00:59.301Z,28.04
2022-08-17T10:01:59.536Z,28.04
2022-08-17T10:02:59.769Z,28.03
2022-08-17T10:04:00.005Z,28.02
2022-08-17T10:05:00.250Z,28.06
2022-08-17T10:06:00.460Z,28.06
2022-08-17T10:07:00.753Z,28.11
2022-08-17T10:08:01.112Z,28.12
2022-08-17T10:09:01.334Z,28.14
2022-08-17T10:10:01.613Z,28.11
2022-08-17T10:11:01.866Z,28.11
2022-08-17T10:12:02.102Z,28.11
2022-08-17T10:13:02.329Z,28.09
2022-08-17T10:14:02.575Z,28.12
2022-08-17T10:15:07.813Z,28.09
2022-08-17T10:16:04.237Z,28.14
2022-08-17T10:17:03.587Z,28.19
2022-08-17T10:18:03.827Z,28.27
2022-08-17T10:19:04.048Z,28.33
2022-08-17T10:20:04.438Z,28.39
2022-08-17T10:21:05.606Z,28.44
2022-08-17T10:22:15.008Z,28.46
2022-08-17T10:23:06.195Z,28.49
2022-08-17T10:24:05.489Z,28.52
2022-08-17T10:25:22.856Z,28.56
2022-08-17T10:26:07.030Z,28.52
2022-08-17T10:27:06.346Z,28.54
2022-08-17T10:28:06.577Z,28.52
2022-08-17T10:29:06.893Z,28.56
2022-08-17T10:30:07.127Z,28.59
2022-08-17T10:32:08.686Z,28.56
2022-08-17T10:33:08.187Z,28.56
2022-08-17T10:34:09.566Z,28.58
2022-08-17T10:35:08.504Z,28.56
2022-08-17T10:36:10.805Z,28.56
2022-08-17T10:37:09.016Z,28.58
2022-08-17T10:38:09.395Z,28.62
2022-08-17T10:39:09.579Z,28.67
2022-08-17T10:40:10.073Z,28.68
2022-08-17T10:41:10.150Z,28.67
2022-08-17T10:42:10.529Z,28.61
2022-08-17T10:43:10.740Z,28.62
2022-08-17T10:44:39.516Z,28.64
2022-08-17T10:45:14.276Z,28.64
2022-08-17T10:46:30.324Z,28.62
2022-08-17T10:47:12.892Z,28.62
2022-08-17T10:48:12.578Z,28.62
2022-08-17T10:49:12.499Z,28.62
2022-08-17T10:50:12.815Z,28.62
2022-08-17T10:51:13.045Z,28.66
2022-08-17T10:52:15.667Z,28.70
2022-08-17T10:53:17.905Z,28.73
2022-08-17T10:54:14.907Z,28.76
2022-08-17T10:55:14.204Z,28.73
2022-08-17T10:56:14.428Z,28.74
2022-08-17T10:57:14.710Z,28.74
2022-08-17T10:58:14.947Z,28.74
2022-08-17T10:59:16.167Z,28.73
2022-08-17T11:00:17.230Z,28.74
2022-08-17T11:01:15.832Z,28.76
2022-08-17T11:02:16.097Z,28.80
2022-08-17T11:03:17.289Z,28.83
2022-08-17T11:04:16.584Z,28.88
2022-08-17T11:05:16.812Z,28.96
2022-08-17T11:06:17.051Z,29.04
2022-08-17T11:07:17.297Z,29.09
2022-08-17T11:08:17.534Z,29.08
2022-08-17T11:09:17.772Z,29.06
2022-08-17T11:10:18.016Z,29.09
2022-08-17T11:11:18.337Z,29.12
2022-08-17T11:12:18.582Z,29.18
2022-08-17T11:13:18.817Z,29.21
2022-08-17T11:14:19.071Z,29.24
2022-08-17T11:15:19.297Z,29.21
2022-08-17T11:16:19.538Z,29.18
2022-08-17T11:17:19.783Z,29.18
2022-08-17T11:18:20.790Z,29.16
2022-08-17T11:19:21.181Z,29.15
2022-08-17T11:20:20.632Z,29.16
2022-08-17T11:21:20.862Z,29.27
2022-08-17T11:22:21.120Z,29.34
2022-08-17T11:23:21.381Z,29.37
2022-08-17T11:24:21.652Z,29.41
2022-08-17T11:25:21.871Z,29.43
2022-08-17T11:26:22.111Z,29.48
2022-08-17T11:27:22.364Z,29.49
2022-08-17T11:28:22.717Z,29.52
2022-08-17T11:29:24.592Z,29.52
2022-08-17T11:30:23.176Z,29.53
2022-08-17T11:31:23.417Z,29.49
2022-08-17T11:32:25.527Z,29.37
2022-08-17T11:33:23.960Z,29.30
2022-08-17T11:34:24.207Z,29.26
2022-08-17T11:35:24.438Z,29.27
2022-08-17T11:36:24.759Z,29.23
2022-08-17T11:37:24.999Z,29.19
2022-08-17T11:38:25.254Z,29.15
2022-08-17T11:39:25.569Z,29.15
2022-08-17T11:40:25.861Z,29.14
2022-08-17T11:41:26.099Z,29.15
2022-08-17T11:42:26.350Z,29.11
2022-08-17T11:43:26.593Z,29.15
2022-08-17T11:44:26.825Z,29.16
2022-08-17T11:45:32.292Z,29.18
2022-08-17T11:46:28.339Z,29.24
2022-08-17T11:47:27.626Z,29.31
2022-08-17T11:48:29.033Z,29.36
2022-08-17T11:49:28.097Z,29.42
2022-08-17T11:50:28.325Z,29.49
2022-08-17T11:51:28.569Z,29.58
2022-08-17T11:52:28.822Z,29.64
2022-08-17T11:53:29.058Z,29.70
2022-08-17T11:54:34.100Z,29.76
2022-08-17T11:55:41.764Z,29.80
2022-08-17T11:56:30.990Z,29.86
2022-08-17T11:57:30.289Z,29.90
2022-08-17T11:58:31.302Z,29.95
2022-08-17T11:59:30.771Z,29.90
2022-08-17T12:00:31.010Z,29.82
2022-08-17T12:01:31.242Z,29.79
2022-08-17T12:02:32.523Z,29.78
2022-08-17T12:03:31.939Z,29.78
2022-08-17T12:04:32.112Z,29.80
2022-08-17T12:05:32.335Z,29.82
2022-08-17T12:06:32.592Z,29.80
2022-08-17T12:07:32.830Z,29.82
2022-08-17T12:08:33.064Z,29.83
2022-08-17T12:09:33.308Z,29.85
2022-08-17T12:10:33.550Z,29.82
2022-08-17T12:12:01.542Z,29.82
2022-08-17T12:12:35.106Z,29.71
2022-08-17T12:13:38.656Z,29.71
2022-08-17T12:15:05.679Z,29.74
2022-08-17T12:15:35.919Z,29.79
2022-08-17T12:16:35.245Z,29.82
2022-08-17T12:17:41.134Z,29.83
2022-08-17T12:18:36.801Z,29.85
2022-08-17T12:19:36.111Z,29.86
2022-08-17T12:20:36.337Z,29.85
2022-08-17T12:21:36.701Z,29.83
2022-08-17T12:22:36.943Z,29.82
2022-08-17T12:23:37.195Z,29.78
2022-08-17T12:24:37.412Z,29.68
2022-08-17T12:25:37.767Z,29.61
2022-08-17T12:26:38.004Z,29.57
2022-08-17T12:28:04.441Z,29.55
2022-08-17T12:28:39.567Z,29.51
2022-08-17T12:29:39.335Z,29.46
2022-08-17T12:30:39.132Z,29.37
2022-08-17T12:31:39.353Z,29.31
2022-08-17T12:32:39.747Z,29.23
2022-08-17T12:33:39.973Z,29.16
2022-08-17T12:34:40.220Z,29.12
2022-08-17T12:35:40.482Z,29.11
2022-08-17T12:36:40.682Z,29.12
2022-08-17T12:37:40.936Z,29.19
2022-08-17T12:38:41.163Z,29.27
2022-08-17T12:39:41.419Z,29.37
2022-08-17T12:40:41.651Z,29.46
2022-08-17T12:41:41.874Z,29.55
2022-08-17T12:42:42.268Z,29.55
2022-08-17T12:43:42.474Z,29.61
2022-08-17T12:44:50.330Z,29.65
2022-08-17T12:45:44.014Z,29.70
2022-08-17T12:46:43.331Z,29.73
2022-08-17T12:47:43.652Z,29.73
2022-08-17T12:48:59.189Z,29.73
2022-08-17T12:49:45.183Z,29.71
2022-08-17T12:50:44.458Z,29.64
2022-08-17T12:51:44.700Z,29.64
2022-08-17T12:52:44.940Z,29.67
2022-08-17T12:53:45.212Z,29.67
2022-08-17T12:54:45.502Z,29.63
2022-08-17T12:55:45.836Z,29.64
2022-08-17T12:56:46.059Z,29.64
2022-08-17T12:57:46.376Z,29.68
2022-08-17T12:58:46.644Z,29.68
2022-08-17T12:59:46.883Z,29.71